Terminal Aerodrome Forecast
Issued by NWS

Home | Current Version | Previous Version | Text Only | Print | Product List | Glossary On
Versions: 1 2 3 4 5 6 7 8 9 10 11 12 13 14 15 16 17 18 19 20
000
FTUS46 KLOX 050630 AAA
TAFLGB
TAF AMD
KLGB 050630Z 0507/0606 VRB03KT 5SM HZ BKN015
     FM050900 VRB03KT P6SM OVC010
     FM051900 19007KT P6SM SCT015
     FM060000 29008KT P6SM SKC
     FM060500 VRB03KT P6SM BKN010=

USA.gov is the U.S. government's official web portal to all federal, state and local government web resources and services.